createdAt,value
2023-03-01T00:00:11.139Z,12.48
2023-03-01T00:02:45.012Z,12.83
2023-03-01T00:05:15.401Z,12.05
2023-03-01T00:07:48.416Z,12.60
2023-03-01T00:10:18.908Z,12.00
2023-03-01T00:12:49.333Z,12.88
2023-03-01T00:15:22.691Z,11.97
2023-03-01T00:17:53.002Z,12.27
2023-03-01T00:20:23.342Z,11.53
2023-03-01T00:22:56.288Z,12.30
2023-03-01T00:25:26.726Z,11.87
2023-03-01T00:27:59.535Z,11.77
2023-03-01T00:30:29.982Z,12.67
2023-03-01T00:33:00.291Z,12.47
2023-03-01T00:35:30.853Z,12.43
2023-03-01T00:38:07.438Z,12.60
2023-03-01T00:40:39.754Z,12.50
2023-03-01T00:43:11.280Z,13.00
2023-03-01T00:45:41.655Z,12.18
2023-03-01T00:48:12.077Z,11.93
2023-03-01T00:50:42.667Z,12.20
2023-03-01T00:53:15.679Z,12.00
2023-03-01T00:55:48.263Z,13.53
2023-03-01T00:58:18.666Z,12.83
2023-03-01T01:00:49.593Z,13.52
2023-03-01T01:03:20.107Z,13.45
2023-03-01T01:05:50.636Z,13.88
2023-03-01T01:08:24.339Z,13.02
2023-03-01T01:10:56.737Z,13.40
2023-03-01T01:13:27.147Z,12.87
2023-03-01T01:15:57.496Z,12.63
2023-03-01T01:18:27.884Z,12.70
2023-03-01T01:20:58.190Z,12.57
2023-03-01T01:23:31.253Z,13.37
2023-03-01T01:26:04.538Z,13.43
2023-03-01T01:28:35.002Z,12.83
2023-03-01T01:31:05.527Z,15.10
2023-03-01T01:33:36.046Z,14.40
2023-03-01T01:36:07.296Z,13.77
2023-03-01T01:41:14.558Z,13.43
2023-03-01T01:43:48.379Z,13.30
2023-03-01T01:46:30.791Z,13.03
2023-03-01T01:49:06.577Z,12.77
2023-03-01T01:51:41.981Z,13.47
2023-03-01T01:54:20.604Z,12.43
2023-03-01T01:56:55.628Z,13.10
2023-03-01T01:59:27.703Z,13.00
2023-03-01T02:01:58.460Z,14.13
2023-03-01T02:04:32.392Z,13.40
2023-03-01T02:07:16.012Z,13.93
2023-03-01T02:09:53.822Z,14.97
2023-03-01T02:12:28.076Z,12.87
2023-03-01T02:14:59.023Z,14.87
2023-03-01T02:17:29.703Z,13.03
2023-03-01T02:20:16.778Z,13.23
2023-03-01T02:22:49.446Z,14.00
2023-03-01T02:25:35.624Z,13.33
2023-03-01T02:28:14.779Z,12.83
2023-03-01T02:31:02.548Z,14.87
2023-03-01T02:33:37.164Z,12.87
2023-03-01T02:36:14.381Z,13.53
2023-03-01T02:38:45.382Z,12.83
2023-03-01T02:41:19.901Z,14.43
2023-03-01T02:43:50.551Z,13.77
2023-03-01T02:46:27.072Z,12.52
2023-03-01T02:48:59.874Z,13.73
2023-03-01T02:51:51.493Z,13.37
2023-03-01T02:56:57.493Z,12.60
2023-03-01T02:59:34.836Z,12.90
2023-03-01T03:02:07.877Z,12.93
2023-03-01T03:04:38.440Z,14.13
2023-03-01T03:07:08.807Z,13.63
2023-03-01T03:09:39.134Z,12.50
2023-03-01T03:12:09.942Z,14.00
2023-03-01T03:14:40.558Z,14.02
2023-03-01T03:17:13.467Z,15.47
2023-03-01T03:19:46.444Z,14.17
2023-03-01T03:22:16.923Z,14.17
2023-03-01T03:24:47.294Z,14.30
2023-03-01T03:27:17.590Z,13.97
2023-03-01T03:29:47.841Z,15.40
2023-03-01T03:32:20.845Z,14.50
2023-03-01T03:34:51.175Z,14.50
2023-03-01T03:37:33.604Z,13.77
2023-03-01T03:40:04.619Z,14.20
2023-03-01T03:42:34.965Z,13.45
2023-03-01T03:45:05.298Z,14.23
2023-03-01T03:47:38.155Z,13.80
2023-03-01T03:50:09.634Z,13.73
2023-03-01T03:52:39.917Z,13.20
2023-03-01T03:55:13.237Z,14.03
2023-03-01T03:57:44.946Z,13.80
2023-03-01T04:00:17.447Z,14.93
2023-03-01T04:02:51.718Z,13.53
2023-03-01T04:05:23.063Z,13.70
2023-03-01T04:10:35.012Z,12.30
2023-03-01T04:13:05.621Z,12.20
2023-03-01T04:15:36.407Z,12.38
2023-03-01T04:18:10.445Z,13.52
2023-03-01T04:20:40.756Z,12.20
2023-03-01T04:23:17.325Z,12.30
2023-03-01T04:25:54.735Z,13.13
2023-03-01T04:28:26.082Z,12.73
2023-03-01T04:33:30.391Z,12.48
2023-03-01T04:36:00.830Z,13.80
2023-03-01T04:38:31.164Z,13.43
2023-03-01T04:41:01.440Z,12.60
2023-03-01T04:43:31.659Z,13.27
2023-03-01T04:46:07.331Z,13.20
2023-03-01T04:48:41.509Z,13.30
2023-03-01T04:51:14.494Z,13.73
2023-03-01T04:53:46.146Z,14.77
2023-03-01T04:56:19.078Z,12.90
2023-03-01T04:58:50.564Z,13.53
2023-03-01T05:01:24.800Z,12.83
2023-03-01T05:04:03.929Z,13.83
2023-03-01T05:06:34.258Z,13.60
2023-03-01T05:09:04.518Z,12.80
2023-03-01T05:11:36.952Z,12.97
2023-03-01T05:14:07.992Z,12.53
2023-03-01T05:16:40.062Z,12.98
2023-03-01T05:19:16.430Z,13.07
2023-03-01T05:21:59.845Z,12.70
2023-03-01T05:24:30.590Z,12.60
2023-03-01T05:27:01.281Z,13.00
2023-03-01T05:29:35.981Z,12.65
2023-03-01T05:32:07.901Z,13.03
2023-03-01T05:34:41.054Z,12.90
2023-03-01T05:37:11.493Z,13.13
2023-03-01T05:39:42.886Z,14.27
2023-03-01T05:42:15.510Z,12.80
2023-03-01T05:44:45.721Z,13.30
2023-03-01T05:47:16.022Z,12.87
2023-03-01T05:49:50.643Z,13.83
2023-03-01T05:52:20.912Z,13.20
2023-03-01T05:54:51.207Z,13.00
2023-03-01T05:57:21.491Z,12.87
2023-03-01T05:59:51.788Z,13.33
2023-03-01T06:02:22.224Z,13.63
2023-03-01T06:04:55.298Z,14.43
2023-03-01T06:07:25.650Z,12.07
2023-03-01T06:09:55.986Z,13.03
2023-03-01T06:12:26.344Z,13.63
2023-03-01T06:14:59.654Z,12.43
2023-03-01T06:17:32.651Z,13.17
2023-03-01T06:20:05.843Z,13.50
2023-03-01T06:22:36.377Z,13.20
2023-03-01T06:25:08.118Z,13.18
2023-03-01T06:27:38.856Z,12.93
2023-03-01T06:30:12.529Z,13.07
2023-03-01T06:32:43.702Z,13.27
2023-03-01T06:35:19.109Z,12.90
2023-03-01T06:37:50.938Z,13.53
2023-03-01T06:40:22.416Z,12.17
2023-03-01T06:42:57.210Z,13.17
2023-03-01T06:45:28.369Z,14.50
2023-03-01T06:48:07.271Z,14.15
2023-03-01T06:50:41.406Z,13.83
2023-03-01T06:53:11.919Z,16.37
2023-03-01T06:55:42.331Z,14.48
2023-03-01T06:58:14.165Z,13.87
2023-03-01T07:00:45.372Z,13.97
2023-03-01T07:03:15.665Z,13.30
2023-03-01T07:05:48.654Z,14.43
2023-03-01T07:08:18.986Z,12.50
2023-03-01T07:10:51.654Z,13.43
2023-03-01T07:13:22.911Z,14.47
2023-03-01T07:15:53.345Z,13.93
2023-03-01T07:18:23.743Z,13.63
2023-03-01T07:20:56.642Z,12.77
2023-03-01T07:23:26.992Z,13.37
2023-03-01T07:25:57.694Z,12.77
2023-03-01T07:28:28.811Z,12.93
2023-03-01T07:30:59.609Z,12.43
2023-03-01T07:33:29.940Z,11.85
2023-03-01T07:36:05.691Z,13.70
2023-03-01T07:38:36.596Z,11.93
2023-03-01T07:41:08.200Z,12.85
2023-03-01T07:43:38.713Z,13.37
2023-03-01T07:46:09.194Z,12.27
2023-03-01T07:48:40.477Z,12.85
2023-03-01T07:53:44.373Z,13.30
2023-03-01T07:56:18.591Z,14.53
2023-03-01T07:58:50.969Z,14.25
2023-03-01T08:01:24.932Z,14.57
2023-03-01T08:03:55.255Z,14.73
2023-03-01T08:06:28.246Z,15.38
2023-03-01T08:08:59.540Z,15.70
2023-03-01T08:11:30.560Z,14.60
2023-03-01T08:14:00.928Z,14.65
2023-03-01T08:16:31.923Z,15.57
2023-03-01T08:21:40.143Z,15.15
2023-03-01T08:24:12.086Z,15.02
2023-03-01T08:26:42.415Z,14.32
2023-03-01T08:29:12.722Z,14.93
2023-03-01T08:31:44.504Z,14.63
2023-03-01T08:34:18.169Z,14.15
2023-03-01T08:36:52.855Z,14.38
2023-03-01T08:39:25.959Z,14.27
2023-03-01T08:41:56.567Z,13.63
2023-03-01T08:44:27.211Z,14.40
2023-03-01T08:46:58.702Z,14.05
2023-03-01T08:49:29.299Z,13.63
2023-03-01T08:52:02.493Z,13.88
2023-03-01T08:54:32.963Z,14.48
2023-03-01T08:57:05.988Z,13.70
2023-03-01T08:59:38.396Z,13.80
2023-03-01T09:02:12.520Z,13.07
2023-03-01T09:04:43.096Z,13.63
2023-03-01T09:07:16.092Z,14.63
2023-03-01T09:09:46.575Z,13.23
2023-03-01T09:12:19.400Z,12.77
2023-03-01T09:14:50.022Z,12.70
2023-03-01T09:17:22.714Z,12.57
2023-03-01T09:19:54.779Z,12.57
2023-03-01T09:22:29.868Z,12.45
2023-03-01T09:25:00.524Z,12.98
2023-03-01T09:27:31.044Z,13.13
2023-03-01T09:30:01.373Z,13.38
2023-03-01T09:32:34.222Z,12.65
2023-03-01T09:35:10.439Z,12.80
2023-03-01T09:37:43.973Z,13.75
2023-03-01T09:40:20.381Z,12.18
2023-03-01T09:42:57.700Z,13.70
2023-03-01T09:45:37.560Z,12.50
2023-03-01T09:48:11.891Z,12.15
2023-03-01T09:50:47.757Z,14.32
2023-03-01T09:53:24.167Z,13.45
2023-03-01T09:56:04.525Z,11.80
2023-03-01T09:58:48.381Z,13.50
2023-03-01T10:01:43.028Z,13.27
2023-03-01T10:04:32.907Z,13.65
2023-03-01T10:07:20.554Z,13.88
2023-03-01T10:09:53.749Z,13.60
2023-03-01T10:12:31.321Z,13.63
2023-03-01T10:15:09.075Z,13.80
2023-03-01T10:17:42.100Z,13.80
2023-03-01T10:20:25.921Z,13.80
2023-03-01T10:23:00.007Z,14.07
2023-03-01T10:25:55.148Z,14.05
2023-03-01T10:28:35.467Z,13.13
2023-03-01T10:31:09.242Z,13.88
2023-03-01T10:33:43.164Z,13.30
2023-03-01T10:36:13.845Z,14.25
2023-03-01T10:38:57.975Z,14.18
2023-03-01T10:41:32.244Z,13.65
2023-03-01T10:44:04.018Z,13.43
2023-03-01T10:46:38.776Z,13.35
2023-03-01T10:49:17.821Z,12.80
2023-03-01T10:51:50.881Z,13.25
2023-03-01T10:54:24.998Z,13.85
2023-03-01T10:57:03.715Z,12.65
2023-03-01T10:59:37.046Z,13.85
2023-03-01T11:02:25.444Z,13.82
2023-03-01T11:05:03.565Z,14.13
2023-03-01T11:07:34.244Z,14.05
2023-03-01T11:10:16.441Z,14.02
2023-03-01T11:12:49.632Z,13.85
2023-03-01T11:15:30.303Z,15.32
2023-03-01T11:18:12.994Z,14.60
2023-03-01T11:20:47.374Z,14.93
2023-03-01T11:23:18.689Z,14.65
2023-03-01T11:26:00.363Z,15.50
2023-03-01T11:28:34.336Z,16.08
2023-03-01T11:31:10.196Z,15.52
2023-03-01T11:33:50.534Z,16.42
2023-03-01T11:36:38.564Z,15.80
2023-03-01T11:39:26.224Z,16.08
2023-03-01T11:42:17.075Z,16.55
2023-03-01T11:44:58.450Z,15.27
2023-03-01T11:47:49.689Z,14.00
2023-03-01T11:50:40.050Z,13.80
2023-03-01T11:56:09.820Z,14.30
2023-03-01T11:59:02.932Z,14.15
2023-03-01T12:01:55.371Z,13.88
2023-03-01T12:05:16.700Z,14.80
2023-03-01T12:07:57.366Z,13.70
2023-03-01T12:10:32.288Z,13.70
2023-03-01T12:13:22.802Z,12.90
2023-03-01T12:16:16.236Z,13.88
2023-03-01T12:19:21.689Z,15.18
2023-03-01T12:22:17.361Z,15.65
2023-03-01T12:25:15.109Z,16.45
2023-03-01T12:28:11.682Z,15.80
2023-03-01T12:30:59.247Z,15.82
2023-03-01T12:33:42.908Z,17.90
2023-03-01T12:36:42.175Z,17.17
2023-03-01T12:39:30.359Z,17.40
2023-03-01T12:42:11.794Z,16.88
2023-03-01T12:45:00.901Z,16.73
2023-03-01T12:47:52.237Z,16.60
2023-03-01T12:50:26.946Z,16.60
2023-03-01T12:53:01.947Z,16.02
2023-03-01T12:55:38.009Z,16.40
2023-03-01T12:58:17.466Z,16.35
2023-03-01T13:01:04.265Z,17.50
2023-03-01T13:03:56.446Z,16.50
2023-03-01T13:06:43.432Z,17.13
2023-03-01T13:09:28.662Z,16.25
2023-03-01T13:11:59.165Z,16.67
2023-03-01T13:14:50.238Z,17.33
2023-03-01T13:17:47.318Z,16.75
2023-03-01T13:20:21.633Z,17.13
2023-03-01T13:23:05.146Z,17.55
2023-03-01T13:25:42.872Z,16.25
2023-03-01T13:28:44.628Z,16.08
2023-03-01T13:32:05.813Z,15.63
2023-03-01T13:35:05.155Z,16.00
2023-03-01T13:37:39.328Z,16.57
2023-03-01T13:41:04.072Z,16.73
2023-03-01T13:43:37.034Z,15.13
2023-03-01T13:46:15.057Z,15.45
2023-03-01T13:48:49.350Z,14.95
2023-03-01T13:51:19.744Z,15.18
2023-03-01T13:53:51.824Z,15.30
2023-03-01T13:56:30.394Z,15.07
2023-03-01T13:59:06.405Z,15.38
2023-03-01T14:01:41.146Z,16.00
2023-03-01T14:04:26.909Z,15.23
2023-03-01T14:07:14.778Z,15.25
2023-03-01T14:09:48.135Z,15.52
2023-03-01T14:12:43.758Z,15.30
2023-03-01T14:15:22.765Z,15.70
2023-03-01T14:18:08.821Z,14.82
2023-03-01T14:20:46.686Z,15.18
2023-03-01T14:23:21.412Z,15.40
2023-03-01T14:25:54.199Z,14.50
2023-03-01T14:28:30.641Z,15.32
2023-03-01T14:31:03.947Z,14.75
2023-03-01T14:33:38.294Z,15.43
2023-03-01T14:36:11.170Z,14.85
2023-03-01T14:38:46.171Z,15.25
2023-03-01T14:41:21.414Z,15.90
2023-03-01T14:43:59.102Z,15.38
2023-03-01T14:46:37.651Z,14.57
2023-03-01T14:49:17.725Z,14.38
2023-03-01T14:51:56.377Z,14.33
2023-03-01T14:54:31.868Z,14.35
2023-03-01T14:57:05.225Z,14.68
2023-03-01T14:59:38.354Z,14.25
2023-03-01T15:02:12.972Z,16.20
2023-03-01T15:04:45.889Z,14.80
2023-03-01T15:07:18.150Z,14.38
2023-03-01T15:09:49.224Z,15.05
2023-03-01T15:12:44.818Z,15.00
2023-03-01T15:15:42.852Z,14.65
2023-03-01T15:18:24.921Z,13.68
2023-03-01T15:20:56.062Z,14.07
2023-03-01T15:23:29.995Z,13.77
2023-03-01T15:26:01.994Z,13.30
2023-03-01T15:28:35.960Z,13.70
2023-03-01T15:31:21.935Z,12.52
2023-03-01T15:33:53.209Z,13.25
2023-03-01T15:36:41.822Z,13.02
2023-03-01T15:39:39.185Z,12.48
2023-03-01T15:42:17.927Z,12.63
2023-03-01T15:44:48.795Z,12.82
2023-03-01T15:50:03.922Z,12.75
2023-03-01T15:52:40.800Z,12.90
2023-03-01T15:55:20.898Z,13.13
2023-03-01T15:57:52.085Z,13.00
2023-03-01T16:00:26.935Z,13.23
2023-03-01T16:03:00.607Z,14.60
2023-03-01T16:05:34.400Z,14.88
2023-03-01T16:08:06.663Z,14.05
2023-03-01T16:10:38.536Z,13.60
2023-03-01T16:13:09.084Z,13.20
2023-03-01T16:15:40.775Z,13.40
2023-03-01T16:18:13.784Z,15.00
2023-03-01T16:20:44.708Z,14.07
2023-03-01T16:23:15.856Z,13.95
2023-03-01T16:28:16.270Z,13.52
2023-03-01T16:30:51.935Z,13.33
2023-03-01T16:33:30.036Z,14.25
2023-03-01T16:36:04.696Z,13.38
2023-03-01T16:38:36.226Z,14.05
2023-03-01T16:41:06.865Z,14.10
2023-03-01T16:43:37.332Z,15.38
2023-03-01T16:46:14.694Z,13.05
2023-03-01T16:48:47.873Z,14.13
2023-03-01T16:51:18.610Z,14.02
2023-03-01T16:53:49.458Z,13.75
2023-03-01T16:56:20.729Z,14.52
2023-03-01T16:58:51.448Z,13.73
2023-03-01T17:01:27.109Z,14.10
2023-03-01T17:04:00.786Z,12.87
2023-03-01T17:06:32.942Z,13.37
2023-03-01T17:09:03.726Z,14.60
2023-03-01T17:11:34.902Z,14.40
2023-03-01T17:16:36.331Z,14.75
2023-03-01T17:21:39.608Z,13.90
2023-03-01T17:24:10.442Z,13.55
2023-03-01T17:26:40.919Z,14.25
2023-03-01T17:29:11.832Z,14.68
2023-03-01T17:31:42.364Z,14.65
2023-03-01T17:34:16.259Z,14.10
2023-03-01T17:36:47.826Z,14.10
2023-03-01T17:39:18.260Z,15.33
2023-03-01T17:41:48.627Z,14.43
2023-03-01T17:44:22.404Z,16.60
2023-03-01T17:46:53.027Z,15.07
2023-03-01T17:49:25.981Z,15.75
2023-03-01T17:51:56.621Z,15.90
2023-03-01T17:54:27.469Z,12.07
2023-03-01T17:56:59.045Z,15.52
2023-03-01T17:59:33.631Z,14.97
2023-03-01T18:02:04.142Z,14.03
2023-03-01T18:04:37.161Z,15.00
2023-03-01T18:07:07.586Z,14.67
2023-03-01T18:09:37.951Z,14.40
2023-03-01T18:12:08.527Z,22.13
2023-03-01T18:14:39.086Z,17.75
2023-03-01T18:17:12.276Z,14.90
2023-03-01T18:19:45.297Z,14.47
2023-03-01T18:22:15.706Z,15.83
2023-03-01T18:24:46.294Z,14.60
2023-03-01T18:27:16.768Z,14.90
2023-03-01T18:29:47.180Z,16.87
2023-03-01T18:32:17.751Z,16.15
2023-03-01T18:34:50.722Z,15.35
2023-03-01T18:37:21.039Z,15.33
2023-03-01T18:39:55.045Z,16.27
2023-03-01T18:42:25.361Z,16.97
2023-03-01T18:44:57.414Z,16.00
2023-03-01T18:47:27.746Z,15.83
2023-03-01T18:50:00.786Z,15.80
2023-03-01T18:52:31.119Z,15.50
2023-03-01T18:55:04.087Z,16.23
2023-03-01T18:57:37.452Z,16.43
2023-03-01T19:00:09.724Z,16.70
2023-03-01T19:02:40.276Z,16.37
2023-03-01T19:05:16.360Z,15.07
2023-03-01T19:07:46.891Z,15.60
2023-03-01T19:10:17.326Z,16.97
2023-03-01T19:12:47.829Z,16.17
2023-03-01T19:15:18.355Z,16.13
2023-03-01T19:17:49.000Z,15.88
2023-03-01T19:20:22.214Z,16.90
2023-03-01T19:22:52.554Z,16.30
2023-03-01T19:25:22.937Z,15.90
2023-03-01T19:27:53.328Z,16.87
2023-03-01T19:30:24.597Z,16.67
2023-03-01T19:35:28.141Z,16.80
2023-03-01T19:37:58.497Z,17.17
2023-03-01T19:40:29.082Z,16.17
2023-03-01T19:42:59.345Z,16.67
2023-03-01T19:45:34.724Z,15.50
2023-03-01T19:48:05.061Z,15.90
2023-03-01T19:50:38.542Z,15.43
2023-03-01T19:53:08.935Z,15.43
2023-03-01T19:55:40.139Z,14.80
2023-03-01T20:00:42.592Z,14.83
2023-03-01T20:03:13.109Z,21.10
2023-03-01T20:05:46.766Z,17.90
2023-03-01T20:08:17.167Z,16.73
2023-03-01T20:10:47.456Z,15.63
2023-03-01T20:13:21.193Z,15.77
2023-03-01T20:15:52.216Z,16.07
2023-03-01T20:18:22.626Z,15.38
2023-03-01T20:20:55.861Z,16.03
2023-03-01T20:23:26.218Z,16.07
2023-03-01T20:26:06.213Z,15.50
2023-03-01T20:28:38.652Z,16.57
2023-03-01T20:31:11.546Z,15.70
2023-03-01T20:33:42.246Z,15.47
2023-03-01T20:36:15.687Z,16.33
2023-03-01T20:38:46.386Z,16.80
2023-03-01T20:41:17.374Z,15.83
2023-03-01T20:43:53.834Z,16.50
2023-03-01T20:46:26.658Z,17.03
2023-03-01T20:48:57.417Z,18.77
2023-03-01T20:51:30.830Z,19.35
2023-03-01T20:54:01.342Z,19.23
2023-03-01T20:56:32.479Z,18.25
2023-03-01T20:59:08.472Z,18.37
2023-03-01T21:01:40.811Z,19.83
2023-03-01T21:04:13.152Z,19.10
2023-03-01T21:06:46.290Z,18.73
2023-03-01T21:09:17.375Z,18.27
2023-03-01T21:11:47.945Z,17.70
2023-03-01T21:14:18.558Z,15.82
2023-03-01T21:16:49.004Z,16.50
2023-03-01T21:19:19.574Z,16.65
2023-03-01T21:21:52.647Z,16.80
2023-03-01T21:24:23.214Z,17.23
2023-03-01T21:26:53.665Z,17.30
2023-03-01T21:29:24.070Z,17.60
2023-03-01T21:31:54.709Z,16.90
2023-03-01T21:34:27.974Z,17.50
2023-03-01T21:37:01.647Z,18.33
2023-03-01T21:39:32.311Z,16.87
2023-03-01T21:42:04.892Z,18.02
2023-03-01T21:44:36.587Z,17.27
2023-03-01T21:47:07.207Z,18.90
2023-03-01T21:49:37.931Z,17.40
2023-03-01T21:52:17.091Z,16.73
2023-03-01T21:54:48.143Z,17.30
2023-03-01T21:57:18.521Z,16.75
2023-03-01T21:59:48.944Z,17.23
2023-03-01T22:02:19.436Z,17.35
2023-03-01T22:04:49.889Z,16.97
2023-03-01T22:07:23.003Z,18.52
2023-03-01T22:09:53.656Z,18.13
2023-03-01T22:12:24.052Z,17.38
2023-03-01T22:14:54.518Z,17.83
2023-03-01T22:17:24.945Z,18.40
2023-03-01T22:19:55.397Z,17.47
2023-03-01T22:22:28.570Z,18.73
2023-03-01T22:24:58.882Z,16.20
2023-03-01T22:27:30.934Z,17.33
2023-03-01T22:30:01.243Z,17.10
2023-03-01T22:32:31.758Z,17.07
2023-03-01T22:35:04.400Z,18.08
2023-03-01T22:37:37.542Z,18.57
2023-03-01T22:40:11.223Z,17.03
2023-03-01T22:42:44.271Z,16.47
2023-03-01T22:45:15.980Z,15.33
2023-03-01T22:47:47.873Z,15.63
2023-03-01T22:50:20.306Z,15.77
2023-03-01T22:52:53.329Z,16.53
2023-03-01T22:55:24.099Z,17.43
2023-03-01T22:57:55.165Z,16.33
2023-03-01T23:00:31.128Z,16.25
2023-03-01T23:03:02.142Z,13.77
2023-03-01T23:05:35.566Z,15.57
2023-03-01T23:08:08.791Z,14.90
2023-03-01T23:10:43.840Z,14.83
2023-03-01T23:13:14.363Z,14.27
2023-03-01T23:15:45.931Z,14.40
2023-03-01T23:18:16.436Z,14.80
2023-03-01T23:20:46.954Z,15.57
2023-03-01T23:23:21.992Z,14.18
2023-03-01T23:25:59.690Z,14.03
2023-03-01T23:28:30.011Z,15.17
2023-03-01T23:31:02.413Z,15.13
2023-03-01T23:33:38.041Z,14.37
2023-03-01T23:36:10.003Z,14.53
2023-03-01T23:38:43.345Z,14.20
2023-03-01T23:41:14.218Z,13.30
2023-03-01T23:43:51.391Z,14.30
2023-03-01T23:46:24.379Z,13.33
2023-03-01T23:48:56.400Z,14.67
2023-03-01T23:51:27.390Z,14.00
2023-03-01T23:54:05.539Z,13.55
2023-03-01T23:56:38.878Z,13.47
2023-03-01T23:59:13.398Z,13.27
